createdAt,value
2023-03-06T00:02:22.332Z,45.13
2023-03-06T00:04:49.170Z,37.60
2023-03-06T00:07:15.978Z,43.73
2023-03-06T00:09:42.769Z,37.00
2023-03-06T00:12:09.711Z,37.23
2023-03-06T00:14:36.632Z,36.17
2023-03-06T00:17:04.021Z,35.77
2023-03-06T00:19:30.776Z,36.03
2023-03-06T00:21:57.667Z,34.17
2023-03-06T00:24:24.470Z,37.37
2023-03-06T00:26:51.249Z,37.77
2023-03-06T00:29:18.038Z,38.23
2023-03-06T00:31:47.927Z,39.90
2023-03-06T00:34:15.113Z,34.07
2023-03-06T00:36:42.075Z,40.10
2023-03-06T00:39:08.944Z,32.37
2023-03-06T00:41:35.718Z,34.47
2023-03-06T00:44:02.559Z,33.37
2023-03-06T00:46:29.341Z,38.37
2023-03-06T00:48:56.234Z,34.20
2023-03-06T00:51:23.047Z,35.57
2023-03-06T00:53:49.969Z,35.03
2023-03-06T00:56:18.920Z,34.77
2023-03-06T00:58:46.639Z,32.53
2023-03-06T01:01:13.825Z,28.47
2023-03-06T01:03:40.992Z,30.07
2023-03-06T01:06:07.940Z,35.47
2023-03-06T01:08:34.738Z,34.67
2023-03-06T01:11:01.452Z,32.90
2023-03-06T01:13:28.249Z,30.97
2023-03-06T01:15:55.032Z,27.23
2023-03-06T01:18:21.851Z,34.37
2023-03-06T01:20:49.005Z,32.30
2023-03-06T01:23:15.770Z,36.27
2023-03-06T01:25:42.533Z,35.63
2023-03-06T01:28:09.320Z,39.30
2023-03-06T01:30:36.020Z,32.30
2023-03-06T01:33:02.812Z,30.33
2023-03-06T01:35:29.691Z,35.73
2023-03-06T01:37:56.499Z,36.50
2023-03-06T01:40:23.282Z,33.27
2023-03-06T01:42:50.520Z,33.47
2023-03-06T01:45:17.269Z,33.53
2023-03-06T01:47:44.897Z,31.57
2023-03-06T01:50:11.712Z,34.80
2023-03-06T01:52:50.821Z,31.20
2023-03-06T01:55:22.842Z,31.30
2023-03-06T01:57:55.161Z,28.60
2023-03-06T02:00:24.371Z,32.93
2023-03-06T02:03:09.234Z,35.43
2023-03-06T02:05:36.235Z,29.83
2023-03-06T02:08:03.825Z,30.30
2023-03-06T02:10:30.629Z,31.97
2023-03-06T02:12:57.456Z,33.70
2023-03-06T02:15:25.031Z,31.13
2023-03-06T02:17:51.817Z,33.20
2023-03-06T02:20:25.338Z,32.13
2023-03-06T02:23:00.605Z,31.47
2023-03-06T02:25:45.091Z,30.70
2023-03-06T02:28:13.783Z,31.87
2023-03-06T02:30:40.787Z,31.77
2023-03-06T02:33:07.708Z,32.87
2023-03-06T02:35:35.685Z,35.40
2023-03-06T02:38:05.022Z,27.53
2023-03-06T02:40:31.898Z,32.30
2023-03-06T02:42:59.055Z,35.23
2023-03-06T02:45:39.694Z,30.67
2023-03-06T02:48:07.116Z,32.17
2023-03-06T02:50:33.893Z,33.67
2023-03-06T02:53:00.693Z,35.50
2023-03-06T02:55:27.514Z,31.97
2023-03-06T02:57:54.229Z,33.53
2023-03-06T03:00:21.254Z,33.27
2023-03-06T03:02:48.040Z,35.50
2023-03-06T03:05:14.960Z,34.53
2023-03-06T03:07:41.842Z,29.30
2023-03-06T03:10:09.049Z,32.67
2023-03-06T03:12:35.819Z,31.97
2023-03-06T03:15:02.614Z,32.73
2023-03-06T03:17:29.344Z,34.53
2023-03-06T03:19:56.123Z,33.77
2023-03-06T03:22:22.918Z,32.23
2023-03-06T03:24:49.789Z,34.27
2023-03-06T03:27:16.581Z,34.07
2023-03-06T03:29:43.533Z,31.30
2023-03-06T03:32:10.701Z,30.47
2023-03-06T03:34:37.448Z,38.20
2023-03-06T03:37:04.303Z,37.63
2023-03-06T03:39:31.059Z,31.43
2023-03-06T03:41:57.872Z,33.43
2023-03-06T03:44:24.753Z,36.93
2023-03-06T03:46:51.597Z,32.83
2023-03-06T03:49:18.398Z,34.47
2023-03-06T03:51:45.219Z,37.00
2023-03-06T03:54:11.934Z,30.70
2023-03-06T03:56:40.731Z,41.20
2023-03-06T03:59:08.088Z,37.10
2023-03-06T04:01:34.956Z,35.13
2023-03-06T04:04:01.810Z,42.07
2023-03-06T04:06:28.745Z,38.73
2023-03-06T04:08:55.681Z,43.10
2023-03-06T04:11:22.425Z,45.90
2023-03-06T04:13:49.329Z,37.23
2023-03-06T04:16:16.091Z,37.90
2023-03-06T04:18:43.043Z,41.60
2023-03-06T04:21:09.905Z,38.00
2023-03-06T04:23:36.801Z,38.10
2023-03-06T04:26:03.999Z,43.40
2023-03-06T04:28:30.783Z,34.27
2023-03-06T04:30:57.533Z,40.80
2023-03-06T04:33:24.306Z,41.87
2023-03-06T04:35:51.191Z,58.17
2023-03-06T04:38:18.305Z,49.03
2023-03-06T04:40:45.195Z,56.77
2023-03-06T04:43:12.347Z,56.50
2023-03-06T04:45:39.187Z,44.77
2023-03-06T04:48:06.324Z,46.97
2023-03-06T04:50:33.465Z,43.97
2023-03-06T04:53:01.290Z,53.90
2023-03-06T04:55:28.377Z,54.37
2023-03-06T04:57:55.268Z,49.97
2023-03-06T05:00:23.594Z,47.77
2023-03-06T05:02:50.687Z,56.73
2023-03-06T05:05:17.696Z,56.13
2023-03-06T05:07:44.623Z,47.30
2023-03-06T05:10:13.107Z,53.63
2023-03-06T05:12:39.901Z,50.47
2023-03-06T05:15:07.370Z,45.87
2023-03-06T05:17:34.192Z,54.20
2023-03-06T05:20:01.071Z,51.90
2023-03-06T05:22:27.823Z,55.13
2023-03-06T05:24:54.597Z,48.90
2023-03-06T05:27:21.412Z,51.13
2023-03-06T05:29:48.177Z,54.80
2023-03-06T05:32:16.427Z,51.17
2023-03-06T05:34:43.301Z,48.77
2023-03-06T05:37:10.029Z,60.63
2023-03-06T05:39:37.312Z,62.60
2023-03-06T05:42:04.529Z,66.97
2023-03-06T05:44:34.691Z,64.90
2023-03-06T05:47:01.754Z,58.10
2023-03-06T05:49:32.082Z,70.20
2023-03-06T05:51:58.868Z,70.60
2023-03-06T05:54:26.756Z,78.03
2023-03-06T05:56:53.628Z,72.57
2023-03-06T05:59:20.455Z,66.27
2023-03-06T06:01:47.176Z,66.30
2023-03-06T06:04:13.980Z,62.57
2023-03-06T06:06:40.756Z,55.23
2023-03-06T06:09:07.511Z,57.00
2023-03-06T06:11:34.256Z,56.73
2023-03-06T06:14:00.978Z,57.67
2023-03-06T06:16:27.775Z,62.00
2023-03-06T06:18:54.543Z,63.90
2023-03-06T06:21:21.335Z,53.33
2023-03-06T06:23:48.112Z,54.03
2023-03-06T06:26:14.848Z,53.43
2023-03-06T06:28:41.675Z,59.87
2023-03-06T06:31:12.485Z,53.30
2023-03-06T06:33:40.124Z,55.25
2023-03-06T06:36:14.536Z,59.57
2023-03-06T06:38:41.315Z,55.57
2023-03-06T06:43:54.943Z,50.03
2023-03-06T06:47:02.586Z,47.25
2023-03-06T06:49:08.765Z,50.70
2023-03-06T06:51:35.624Z,63.17
2023-03-06T06:54:02.468Z,66.50
2023-03-06T06:56:29.315Z,68.03
2023-03-06T06:59:06.890Z,66.05
2023-03-06T07:01:40.943Z,88.32
2023-03-06T07:04:07.854Z,81.15
2023-03-06T07:06:34.708Z,98.25
2023-03-06T07:09:01.589Z,101.10
2023-03-06T07:11:28.316Z,101.80
2023-03-06T07:13:56.070Z,125.32
2023-03-06T07:16:22.999Z,116.57
2023-03-06T07:18:49.949Z,113.10
2023-03-06T07:21:16.762Z,100.05
2023-03-06T07:23:44.654Z,89.78
2023-03-06T07:26:11.664Z,89.25
2023-03-06T07:28:51.667Z,106.95
2023-03-06T07:31:22.170Z,100.30
2023-03-06T07:33:49.763Z,92.80
2023-03-06T07:36:16.714Z,72.72
2023-03-06T07:38:43.570Z,81.25
2023-03-06T07:41:13.455Z,79.03
2023-03-06T07:43:42.209Z,85.55
2023-03-06T07:46:09.489Z,75.60
2023-03-06T07:48:37.471Z,89.40
2023-03-06T07:51:09.068Z,69.72
2023-03-06T07:53:35.878Z,80.28
2023-03-06T07:56:08.548Z,77.28
2023-03-06T07:58:39.522Z,90.45
2023-03-06T08:01:07.200Z,68.07
2023-03-06T08:03:34.084Z,64.65
2023-03-06T08:06:14.460Z,67.00
2023-03-06T08:08:42.441Z,145.02
2023-03-06T08:11:09.854Z,78.40
2023-03-06T08:13:36.904Z,77.22
2023-03-06T08:16:03.924Z,59.33
2023-03-06T08:18:30.907Z,60.17
2023-03-06T08:21:05.041Z,63.97
2023-03-06T08:23:32.050Z,64.53
2023-03-06T08:25:59.800Z,57.45
2023-03-06T08:28:26.927Z,55.90
2023-03-06T08:30:53.978Z,56.42
2023-03-06T08:33:21.021Z,53.70
2023-03-06T08:35:47.874Z,52.92
2023-03-06T08:38:14.776Z,51.25
2023-03-06T08:40:41.639Z,53.38
2023-03-06T08:43:13.991Z,56.03
2023-03-06T08:45:41.100Z,49.63
2023-03-06T08:50:34.844Z,57.72
2023-03-06T08:53:01.605Z,50.08
2023-03-06T08:55:28.438Z,49.08
2023-03-06T08:57:55.365Z,59.85
2023-03-06T09:00:23.253Z,59.40
2023-03-06T09:02:50.095Z,57.50
2023-03-06T09:05:17.091Z,57.88
2023-03-06T09:07:43.974Z,59.65
2023-03-06T09:10:15.207Z,53.30
2023-03-06T09:12:50.111Z,54.10
2023-03-06T09:15:17.716Z,47.95
2023-03-06T09:17:44.672Z,50.17
2023-03-06T09:20:12.112Z,46.63
2023-03-06T09:22:38.923Z,51.13
2023-03-06T09:25:06.461Z,47.83
2023-03-06T09:27:33.296Z,50.08
2023-03-06T09:30:00.126Z,47.05
2023-03-06T09:32:26.980Z,58.40
2023-03-06T09:34:53.784Z,51.38
2023-03-06T09:37:20.561Z,54.03
2023-03-06T09:39:47.488Z,54.38
2023-03-06T09:42:18.978Z,44.03
2023-03-06T09:44:55.963Z,43.85
2023-03-06T09:47:43.442Z,55.35
2023-03-06T09:50:25.059Z,57.05
2023-03-06T09:53:03.621Z,63.03
2023-03-06T09:55:36.041Z,54.97
2023-03-06T09:58:25.063Z,63.35
2023-03-06T10:01:05.706Z,69.53
2023-03-06T10:03:44.628Z,55.35
2023-03-06T10:06:34.440Z,64.00
2023-03-06T10:09:07.268Z,49.90
2023-03-06T10:11:56.570Z,42.22
2023-03-06T10:14:58.903Z,26.73
2023-03-06T10:17:26.299Z,25.42
2023-03-06T10:19:53.079Z,18.30
2023-03-06T10:22:36.694Z,11.23
2023-03-06T10:25:05.454Z,15.70
2023-03-06T10:27:43.553Z,13.10
2023-03-06T10:30:38.472Z,11.90
2023-03-06T10:33:15.790Z,16.27
2023-03-06T10:35:49.595Z,12.60
2023-03-06T10:38:32.254Z,11.90
2023-03-06T10:41:11.375Z,20.88
2023-03-06T10:43:41.911Z,10.32
2023-03-06T10:48:38.505Z,10.70
2023-03-06T10:51:18.527Z,8.18
2023-03-06T10:53:53.064Z,16.05
2023-03-06T10:56:46.722Z,11.52
2023-03-06T10:59:20.498Z,8.70
2023-03-06T11:01:48.853Z,11.13
2023-03-06T11:04:25.665Z,11.30
2023-03-06T11:07:14.732Z,14.43
2023-03-06T11:09:47.839Z,10.43
2023-03-06T11:12:30.335Z,11.82
2023-03-06T11:15:14.731Z,7.65
2023-03-06T11:18:21.243Z,13.05
2023-03-06T11:20:53.367Z,13.48
2023-03-06T11:23:31.359Z,6.65
2023-03-06T11:26:15.131Z,10.05
2023-03-06T11:29:19.636Z,13.32
2023-03-06T11:31:55.655Z,7.35
2023-03-06T11:34:39.522Z,12.23
2023-03-06T11:37:32.075Z,13.30
2023-03-06T11:40:05.463Z,12.68
2023-03-06T11:42:35.483Z,8.05
2023-03-06T11:45:34.862Z,16.08
2023-03-06T11:48:13.577Z,8.25
2023-03-06T11:50:47.602Z,13.55
2023-03-06T11:53:16.448Z,15.82
2023-03-06T11:55:57.677Z,11.68
2023-03-06T11:58:43.220Z,25.27
2023-03-06T12:01:14.257Z,11.55
2023-03-06T12:03:50.237Z,13.98
2023-03-06T12:06:28.824Z,13.38
2023-03-06T12:09:06.569Z,18.67
2023-03-06T12:11:44.389Z,12.60
2023-03-06T12:14:20.877Z,18.17
2023-03-06T12:16:58.679Z,21.17
2023-03-06T12:19:37.972Z,41.03
2023-03-06T12:22:57.434Z,11.30
2023-03-06T12:25:33.024Z,10.40
2023-03-06T12:28:23.144Z,28.90
2023-03-06T12:31:23.741Z,13.55
2023-03-06T12:34:11.132Z,26.20
2023-03-06T12:36:56.029Z,25.60
2023-03-06T12:39:29.235Z,16.77
2023-03-06T12:42:06.792Z,18.73
2023-03-06T12:45:14.008Z,21.08
2023-03-06T12:47:42.566Z,33.20
2023-03-06T12:50:21.032Z,32.75
2023-03-06T12:52:48.332Z,17.42
2023-03-06T12:55:17.620Z,19.85
2023-03-06T12:57:45.673Z,15.65
2023-03-06T13:00:32.493Z,19.63
2023-03-06T13:03:02.137Z,17.45
2023-03-06T13:05:54.713Z,13.50
2023-03-06T13:08:46.635Z,14.65
2023-03-06T13:11:42.837Z,12.85
2023-03-06T13:14:54.149Z,15.20
2023-03-06T13:17:21.319Z,15.60
2023-03-06T13:19:48.568Z,13.18
2023-03-06T13:22:27.957Z,11.65
2023-03-06T13:25:19.356Z,12.38
2023-03-06T13:27:52.769Z,11.90
2023-03-06T13:30:38.217Z,12.55
2023-03-06T13:33:32.957Z,13.63
2023-03-06T13:36:01.749Z,21.70
2023-03-06T13:38:36.749Z,11.65
2023-03-06T13:41:22.139Z,13.85
2023-03-06T13:43:53.310Z,10.82
2023-03-06T13:46:26.374Z,11.75
2023-03-06T13:49:08.273Z,12.10
2023-03-06T13:51:58.769Z,15.45
2023-03-06T13:54:48.832Z,9.60
2023-03-06T13:57:43.562Z,10.73
2023-03-06T14:00:16.344Z,8.75
2023-03-06T14:02:57.906Z,9.40
2023-03-06T14:05:24.846Z,15.20
2023-03-06T14:08:17.174Z,12.93
2023-03-06T14:10:44.861Z,12.85
2023-03-06T14:13:22.060Z,10.25
2023-03-06T14:15:50.437Z,14.00
2023-03-06T14:18:43.160Z,12.32
2023-03-06T14:21:14.415Z,12.07
2023-03-06T14:23:46.409Z,10.50
2023-03-06T14:26:22.993Z,19.77
2023-03-06T14:28:52.774Z,18.50
2023-03-06T14:31:38.361Z,13.65
2023-03-06T14:34:06.085Z,14.70
2023-03-06T14:36:35.136Z,11.75
2023-03-06T14:39:04.314Z,13.82
2023-03-06T14:41:32.773Z,15.55
2023-03-06T14:44:23.354Z,15.35
2023-03-06T14:46:51.749Z,21.20
2023-03-06T14:49:19.946Z,24.27
2023-03-06T14:51:52.290Z,18.95
2023-03-06T14:54:20.024Z,18.58
2023-03-06T14:56:51.562Z,64.72
2023-03-06T14:59:21.694Z,39.55
2023-03-06T15:01:49.774Z,22.42
2023-03-06T15:04:38.493Z,26.67
2023-03-06T15:07:10.614Z,31.23
2023-03-06T15:09:37.589Z,38.55
2023-03-06T15:12:33.844Z,40.00
2023-03-06T15:15:10.406Z,28.35
2023-03-06T15:17:44.634Z,28.70
2023-03-06T15:20:41.622Z,35.35
2023-03-06T15:23:20.425Z,221.05
2023-03-06T15:26:00.027Z,67.80
2023-03-06T15:28:32.857Z,40.80
2023-03-06T15:31:22.837Z,48.00
2023-03-06T15:34:11.787Z,58.85
2023-03-06T15:36:39.364Z,23.95
2023-03-06T15:39:46.531Z,33.65
2023-03-06T15:42:15.834Z,30.63
2023-03-06T15:44:42.636Z,25.08
2023-03-06T15:47:13.376Z,21.48
2023-03-06T15:49:40.241Z,17.48
2023-03-06T15:52:07.302Z,16.27
2023-03-06T15:54:34.340Z,13.23
2023-03-06T15:57:02.191Z,11.10
2023-03-06T15:59:32.966Z,12.30
2023-03-06T16:02:04.417Z,20.63
2023-03-06T16:04:31.247Z,22.45
2023-03-06T16:06:58.123Z,40.70
2023-03-06T16:09:24.965Z,39.55
2023-03-06T16:11:51.761Z,18.58
2023-03-06T16:14:23.838Z,24.48
2023-03-06T16:16:51.621Z,27.92
2023-03-06T16:19:28.181Z,30.27
2023-03-06T16:21:55.893Z,21.42
2023-03-06T16:24:22.662Z,21.88
2023-03-06T16:26:50.904Z,27.08
2023-03-06T16:29:21.919Z,37.65
2023-03-06T16:34:15.539Z,23.05
2023-03-06T16:36:42.466Z,24.15
2023-03-06T16:39:15.699Z,25.05
2023-03-06T16:41:42.512Z,30.63
2023-03-06T16:44:10.244Z,32.72
2023-03-06T16:46:45.951Z,41.88
2023-03-06T16:49:23.313Z,37.40
2023-03-06T16:51:50.313Z,44.05
2023-03-06T16:54:17.163Z,43.92
2023-03-06T16:56:44.286Z,25.25
2023-03-06T16:59:11.744Z,23.25
2023-03-06T17:01:39.722Z,23.95
2023-03-06T17:04:06.582Z,28.45
2023-03-06T17:06:33.404Z,27.88
2023-03-06T17:09:00.190Z,30.65
2023-03-06T17:11:27.157Z,21.02
2023-03-06T17:13:55.416Z,30.75
2023-03-06T17:16:22.432Z,37.38
2023-03-06T17:18:49.761Z,26.45
2023-03-06T17:21:16.641Z,28.30
2023-03-06T17:23:44.452Z,45.38
2023-03-06T17:26:18.166Z,40.58
2023-03-06T17:28:45.170Z,35.17
2023-03-06T17:31:22.492Z,37.47
2023-03-06T17:33:49.579Z,187.73
2023-03-06T17:36:16.642Z,109.50
2023-03-06T17:38:43.663Z,86.82
2023-03-06T17:41:10.771Z,59.95
2023-03-06T17:43:37.900Z,51.03
2023-03-06T17:46:08.828Z,44.50
2023-03-06T17:51:02.349Z,44.75
2023-03-06T17:53:29.201Z,41.28
2023-03-06T17:55:58.057Z,36.97
2023-03-06T17:58:25.703Z,35.85
2023-03-06T18:00:52.572Z,34.72
2023-03-06T18:03:19.384Z,36.60
2023-03-06T18:05:46.154Z,32.63
2023-03-06T18:08:13.175Z,30.38
2023-03-06T18:10:40.733Z,38.25
2023-03-06T18:13:08.236Z,57.15
2023-03-06T18:15:38.878Z,54.00
2023-03-06T18:18:05.808Z,77.90
2023-03-06T18:20:33.037Z,68.82
2023-03-06T18:23:03.508Z,88.28
2023-03-06T18:25:31.494Z,96.38
2023-03-06T18:27:58.374Z,77.22
2023-03-06T18:30:25.243Z,82.78
2023-03-06T18:32:52.016Z,70.72
2023-03-06T18:35:18.982Z,73.05
2023-03-06T18:37:45.738Z,77.50
2023-03-06T18:40:13.164Z,79.72
2023-03-06T18:42:39.888Z,78.45
2023-03-06T18:45:07.483Z,78.80
2023-03-06T18:47:34.259Z,67.70
2023-03-06T18:50:02.783Z,65.03
2023-03-06T18:52:29.582Z,144.45
2023-03-06T18:54:56.389Z,91.30
2023-03-06T18:57:23.180Z,87.10
2023-03-06T18:59:50.149Z,44.35
2023-03-06T19:02:17.104Z,68.85
2023-03-06T19:04:43.866Z,64.88
2023-03-06T19:07:11.182Z,62.08
2023-03-06T19:09:37.939Z,110.85
2023-03-06T19:12:05.144Z,94.80
2023-03-06T19:14:31.978Z,85.88
2023-03-06T19:16:58.751Z,83.13
2023-03-06T19:19:26.351Z,98.00
2023-03-06T19:21:53.669Z,108.78
2023-03-06T19:24:20.439Z,135.20
2023-03-06T19:26:47.252Z,187.40
2023-03-06T19:29:14.048Z,191.00
2023-03-06T19:31:40.832Z,224.07
2023-03-06T19:34:07.691Z,202.63
2023-03-06T19:36:34.743Z,80.20
2023-03-06T19:39:03.253Z,69.20
2023-03-06T19:41:30.059Z,69.85
2023-03-06T19:43:58.985Z,53.45
2023-03-06T19:46:26.061Z,59.05
2023-03-06T19:49:00.380Z,66.28
2023-03-06T19:51:27.361Z,69.20
2023-03-06T19:53:54.202Z,78.60
2023-03-06T19:56:29.047Z,67.72
2023-03-06T19:58:56.225Z,56.55
2023-03-06T20:01:25.041Z,53.83
2023-03-06T20:03:59.194Z,54.75
2023-03-06T20:06:29.431Z,60.70
2023-03-06T20:08:56.155Z,61.55
2023-03-06T20:11:27.163Z,54.88
2023-03-06T20:16:20.812Z,58.40
2023-03-06T20:18:47.743Z,296.98
2023-03-06T20:21:14.660Z,102.95
2023-03-06T20:23:41.649Z,209.07
2023-03-06T20:26:10.082Z,139.40
2023-03-06T20:28:39.064Z,98.88
2023-03-06T20:31:16.946Z,107.82
2023-03-06T20:33:48.147Z,83.85
2023-03-06T20:36:23.118Z,79.28
2023-03-06T20:38:49.926Z,73.38
2023-03-06T20:41:17.559Z,77.47
2023-03-06T20:43:44.543Z,104.85
2023-03-06T20:46:11.809Z,72.88
2023-03-06T20:48:38.940Z,43.17
2023-03-06T20:51:07.478Z,45.10
2023-03-06T20:53:36.900Z,64.18
2023-03-06T20:56:03.858Z,86.97
2023-03-06T20:58:31.797Z,53.10
2023-03-06T21:01:00.301Z,54.90
2023-03-06T21:03:29.170Z,98.88
2023-03-06T21:05:55.927Z,41.08
2023-03-06T21:08:23.124Z,42.72
2023-03-06T21:10:50.091Z,39.33
2023-03-06T21:13:17.042Z,38.45
2023-03-06T21:15:44.412Z,42.30
2023-03-06T21:18:11.382Z,47.15
2023-03-06T21:20:39.247Z,58.38
2023-03-06T21:23:06.411Z,52.20
2023-03-06T21:25:33.184Z,46.70
2023-03-06T21:28:00.264Z,48.65
2023-03-06T21:30:27.973Z,43.72
2023-03-06T21:32:55.645Z,41.08
2023-03-06T21:35:22.605Z,33.03
2023-03-06T21:37:49.483Z,37.08
2023-03-06T21:40:16.477Z,34.50
2023-03-06T21:42:43.218Z,40.58
2023-03-06T21:45:10.487Z,37.03
2023-03-06T21:47:40.963Z,38.65
2023-03-06T21:50:09.786Z,37.85
2023-03-06T21:52:36.736Z,39.70
2023-03-06T21:55:03.710Z,35.63
2023-03-06T21:57:30.699Z,39.05
2023-03-06T21:59:57.536Z,37.83
2023-03-06T22:02:24.305Z,38.60
2023-03-06T22:04:52.585Z,38.13
2023-03-06T22:07:22.936Z,42.53
2023-03-06T22:09:52.747Z,42.97
2023-03-06T22:12:19.893Z,34.50
2023-03-06T22:14:46.640Z,43.00
2023-03-06T22:17:13.651Z,37.92
2023-03-06T22:19:40.424Z,47.80
2023-03-06T22:22:08.713Z,44.65
2023-03-06T22:24:36.685Z,33.42
2023-03-06T22:27:03.963Z,32.15
2023-03-06T22:29:30.769Z,30.65
2023-03-06T22:31:57.713Z,32.35
2023-03-06T22:34:26.543Z,33.10
2023-03-06T22:36:53.284Z,30.65
2023-03-06T22:39:20.107Z,32.88
2023-03-06T22:41:47.151Z,32.08
2023-03-06T22:44:18.111Z,25.48
2023-03-06T22:49:12.538Z,37.20
2023-03-06T22:51:39.702Z,27.10
2023-03-06T22:54:07.188Z,26.67
2023-03-06T22:56:33.994Z,29.13
2023-03-06T22:59:00.841Z,24.33
2023-03-06T23:01:32.204Z,34.05
2023-03-06T23:04:02.996Z,27.60
2023-03-06T23:06:34.672Z,30.10
2023-03-06T23:09:11.643Z,29.05
2023-03-06T23:11:38.444Z,29.05
2023-03-06T23:14:05.947Z,35.55
2023-03-06T23:16:33.194Z,35.72
2023-03-06T23:19:00.377Z,36.08
2023-03-06T23:21:27.242Z,47.70
2023-03-06T23:23:54.311Z,63.85
2023-03-06T23:26:23.531Z,53.50
2023-03-06T23:28:50.389Z,47.17
2023-03-06T23:31:19.204Z,57.38
2023-03-06T23:33:46.132Z,60.75
2023-03-06T23:36:14.037Z,60.20
2023-03-06T23:38:41.193Z,58.42
2023-03-06T23:41:12.693Z,54.30
2023-03-06T23:43:39.581Z,59.88
2023-03-06T23:46:07.178Z,49.72
2023-03-06T23:48:35.602Z,47.80
2023-03-06T23:51:07.390Z,43.25
2023-03-06T23:53:34.304Z,51.25
2023-03-06T23:56:01.296Z,41.33
2023-03-06T23:58:28.105Z,40.08
